createdAt,value
2023-03-07T00:00:09.156Z,9.03
2023-03-07T00:02:37.439Z,9.14
2023-03-07T00:05:06.684Z,9.23
2023-03-07T00:07:35.338Z,9.21
2023-03-07T00:10:03.612Z,9.19
2023-03-07T00:12:33.347Z,9.27
2023-03-07T00:15:01.645Z,9.24
2023-03-07T00:17:29.885Z,9.24
2023-03-07T00:19:58.158Z,9.15
2023-03-07T00:22:26.460Z,9.19
2023-03-07T00:24:54.826Z,9.21
2023-03-07T00:27:23.157Z,9.34
2023-03-07T00:29:52.845Z,9.31
2023-03-07T00:32:21.360Z,9.34
2023-03-07T00:34:49.667Z,9.35
2023-03-07T00:37:18.166Z,9.41
2023-03-07T00:39:46.716Z,9.32
2023-03-07T00:42:15.077Z,9.36
2023-03-07T00:44:43.585Z,9.41
2023-03-07T00:47:13.635Z,9.40
2023-03-07T00:49:42.085Z,9.42
2023-03-07T00:52:10.344Z,9.48
2023-03-07T00:54:38.689Z,9.47
2023-03-07T00:57:07.105Z,9.37
2023-03-07T00:59:35.486Z,9.53
2023-03-07T01:02:03.808Z,9.61
2023-03-07T01:04:33.753Z,9.69
2023-03-07T01:07:02.044Z,9.69
2023-03-07T01:09:30.536Z,9.68
2023-03-07T01:11:59.297Z,9.68
2023-03-07T01:14:27.647Z,9.64
2023-03-07T01:16:56.215Z,9.70
2023-03-07T01:19:24.697Z,9.65
2023-03-07T01:21:56.635Z,9.70
2023-03-07T01:24:25.209Z,9.71
2023-03-07T01:26:53.804Z,9.64
2023-03-07T01:29:24.119Z,9.60
2023-03-07T01:31:52.462Z,9.69
2023-03-07T01:34:20.925Z,9.65
2023-03-07T01:36:51.857Z,9.61
2023-03-07T01:39:21.660Z,9.67
2023-03-07T01:42:03.017Z,9.70
2023-03-07T01:44:32.758Z,9.65
2023-03-07T01:47:02.085Z,9.65
2023-03-07T01:49:50.478Z,9.59
2023-03-07T01:52:22.031Z,9.65
2023-03-07T01:54:59.572Z,9.72
2023-03-07T01:57:31.667Z,9.74
2023-03-07T02:00:05.701Z,9.71
2023-03-07T02:02:45.130Z,9.63
2023-03-07T02:05:25.420Z,9.70
2023-03-07T02:07:55.330Z,9.68
2023-03-07T02:10:28.848Z,9.63
2023-03-07T02:12:57.305Z,9.52
2023-03-07T02:15:25.893Z,9.48
2023-03-07T02:17:54.829Z,9.48
2023-03-07T02:20:33.295Z,9.47
2023-03-07T02:23:02.381Z,9.51
2023-03-07T02:25:37.960Z,9.50
2023-03-07T02:28:11.573Z,9.50
2023-03-07T02:30:39.998Z,9.47
2023-03-07T02:33:08.381Z,9.49
2023-03-07T02:35:36.686Z,9.37
2023-03-07T02:38:07.634Z,9.44
2023-03-07T02:40:35.998Z,9.29
2023-03-07T02:43:09.542Z,9.24
2023-03-07T02:45:41.679Z,9.17
2023-03-07T02:48:10.034Z,9.10
2023-03-07T02:50:38.375Z,9.15
2023-03-07T02:53:06.951Z,9.11
2023-03-07T02:55:35.185Z,9.15
2023-03-07T02:58:05.996Z,9.06
2023-03-07T03:00:34.508Z,9.09
2023-03-07T03:03:04.315Z,9.04
2023-03-07T03:05:32.967Z,9.03
2023-03-07T03:08:01.252Z,9.05
2023-03-07T03:10:31.919Z,9.01
2023-03-07T03:13:02.308Z,9.02
2023-03-07T03:15:31.019Z,8.91
2023-03-07T03:17:59.332Z,9.12
2023-03-07T03:20:29.097Z,9.15
2023-03-07T03:22:58.237Z,9.17
2023-03-07T03:25:27.311Z,9.08
2023-03-07T03:27:55.969Z,9.12
2023-03-07T03:30:26.779Z,9.12
2023-03-07T03:32:56.513Z,9.18
2023-03-07T03:35:25.018Z,9.18
2023-03-07T03:37:57.954Z,9.03
2023-03-07T03:40:26.901Z,9.00
2023-03-07T03:42:55.218Z,8.98
2023-03-07T03:45:26.474Z,9.01
2023-03-07T03:47:55.025Z,8.96
2023-03-07T03:50:23.312Z,8.90
2023-03-07T03:52:51.577Z,8.87
2023-03-07T03:55:21.277Z,8.87
2023-03-07T03:57:49.624Z,8.81
2023-03-07T04:00:21.152Z,8.81
2023-03-07T04:02:50.092Z,8.83
2023-03-07T04:05:19.915Z,8.70
2023-03-07T04:07:51.416Z,8.75
2023-03-07T04:10:22.252Z,8.79
2023-03-07T04:12:50.746Z,8.80
2023-03-07T04:15:19.166Z,8.79
2023-03-07T04:17:47.535Z,8.75
2023-03-07T04:20:17.792Z,8.64
2023-03-07T04:22:48.310Z,8.73
2023-03-07T04:25:16.785Z,8.75
2023-03-07T04:27:46.434Z,8.79
2023-03-07T04:30:15.158Z,8.68
2023-03-07T04:32:43.639Z,8.72
2023-03-07T04:35:12.020Z,8.71
2023-03-07T04:37:40.660Z,8.76
2023-03-07T04:40:10.079Z,8.68
2023-03-07T04:42:38.359Z,8.67
2023-03-07T04:45:09.622Z,8.65
2023-03-07T04:47:37.982Z,8.65
2023-03-07T04:50:07.154Z,8.63
2023-03-07T04:52:37.100Z,8.66
2023-03-07T04:55:06.083Z,8.62
2023-03-07T04:57:34.522Z,8.52
2023-03-07T05:00:03.406Z,8.43
2023-03-07T05:02:33.184Z,8.56
2023-03-07T05:05:03.619Z,8.50
2023-03-07T05:07:32.473Z,8.58
2023-03-07T05:10:00.900Z,8.61
2023-03-07T05:12:30.167Z,8.61
2023-03-07T05:15:00.859Z,8.56
2023-03-07T05:17:32.689Z,8.56
2023-03-07T05:20:01.069Z,8.61
2023-03-07T05:22:29.778Z,8.53
2023-03-07T05:24:58.543Z,8.55
2023-03-07T05:27:27.469Z,8.61
2023-03-07T05:29:55.716Z,8.68
2023-03-07T05:32:24.831Z,8.65
2023-03-07T05:34:54.704Z,8.53
2023-03-07T05:37:24.342Z,8.48
2023-03-07T05:39:53.395Z,8.43
2023-03-07T05:42:21.848Z,8.44
2023-03-07T05:44:50.763Z,8.36
2023-03-07T05:47:19.108Z,8.33
2023-03-07T05:49:47.423Z,8.33
2023-03-07T05:52:17.472Z,8.22
2023-03-07T05:54:45.876Z,8.33
2023-03-07T05:57:14.470Z,8.38
2023-03-07T05:59:42.906Z,8.42
2023-03-07T06:02:11.233Z,8.37
2023-03-07T06:04:39.543Z,8.34
2023-03-07T06:07:07.828Z,8.37
2023-03-07T06:09:37.628Z,8.43
2023-03-07T06:12:06.439Z,8.46
2023-03-07T06:14:34.710Z,8.51
2023-03-07T06:17:04.160Z,8.48
2023-03-07T06:19:34.026Z,8.48
2023-03-07T06:22:02.620Z,8.50
2023-03-07T06:24:31.597Z,8.57
2023-03-07T06:27:01.326Z,8.57
2023-03-07T06:29:30.276Z,8.59
2023-03-07T06:31:59.538Z,8.50
2023-03-07T06:34:27.978Z,8.61
2023-03-07T06:36:57.613Z,8.70
2023-03-07T06:39:27.940Z,8.66
2023-03-07T06:41:57.153Z,8.74
2023-03-07T06:44:26.904Z,8.72
2023-03-07T06:46:55.335Z,8.83
2023-03-07T06:49:24.251Z,8.87
2023-03-07T06:51:53.153Z,8.91
2023-03-07T06:54:21.762Z,8.93
2023-03-07T06:56:51.660Z,8.89
2023-03-07T06:59:23.421Z,8.82
2023-03-07T07:01:53.297Z,8.80
2023-03-07T07:04:22.657Z,8.75
2023-03-07T07:06:52.076Z,8.81
2023-03-07T07:09:20.423Z,8.76
2023-03-07T07:11:48.790Z,8.71
2023-03-07T07:14:17.213Z,8.72
2023-03-07T07:16:45.770Z,8.71
2023-03-07T07:19:15.447Z,8.73
2023-03-07T07:21:43.981Z,8.73
2023-03-07T07:24:14.110Z,8.70
2023-03-07T07:26:42.442Z,8.78
2023-03-07T07:29:11.191Z,8.72
2023-03-07T07:31:39.643Z,8.78
2023-03-07T07:34:08.893Z,8.80
2023-03-07T07:36:39.289Z,8.81
2023-03-07T07:39:09.182Z,8.85
2023-03-07T07:41:39.671Z,8.80
2023-03-07T07:44:08.091Z,8.81
2023-03-07T07:46:42.603Z,8.83
2023-03-07T07:49:10.966Z,8.86
2023-03-07T07:51:41.181Z,8.82
2023-03-07T07:54:10.152Z,8.96
2023-03-07T07:56:38.444Z,9.06
2023-03-07T07:59:06.755Z,9.08
2023-03-07T08:01:35.349Z,9.12
2023-03-07T08:04:03.757Z,9.23
2023-03-07T08:06:32.062Z,9.25
2023-03-07T08:09:01.946Z,9.33
2023-03-07T08:11:30.422Z,9.44
2023-03-07T08:13:58.701Z,9.46
2023-03-07T08:16:27.077Z,9.46
2023-03-07T08:18:56.987Z,9.48
2023-03-07T08:21:26.289Z,9.59
2023-03-07T08:23:55.192Z,9.71
2023-03-07T08:26:25.337Z,9.85
2023-03-07T08:28:53.770Z,9.85
2023-03-07T08:31:24.446Z,10.00
2023-03-07T08:33:53.717Z,10.05
2023-03-07T08:36:22.114Z,10.13
2023-03-07T08:38:52.199Z,10.22
2023-03-07T08:41:21.600Z,10.30
2023-03-07T08:43:51.353Z,10.43
2023-03-07T08:46:19.706Z,10.42
2023-03-07T08:48:48.149Z,10.44
2023-03-07T08:51:28.909Z,10.49
2023-03-07T08:53:58.536Z,10.51
2023-03-07T08:56:27.335Z,10.50
2023-03-07T08:58:56.849Z,10.50
2023-03-07T09:01:25.035Z,10.35
2023-03-07T09:03:53.709Z,10.35
2023-03-07T09:06:22.578Z,10.35
2023-03-07T09:08:51.423Z,10.44
2023-03-07T09:11:21.733Z,10.58
2023-03-07T09:13:52.806Z,10.64
2023-03-07T09:16:23.995Z,10.70
2023-03-07T09:18:52.408Z,10.73
2023-03-07T09:21:20.561Z,10.81
2023-03-07T09:23:48.831Z,10.96
2023-03-07T09:26:19.955Z,11.01
2023-03-07T09:28:48.281Z,11.16
2023-03-07T09:31:18.656Z,11.13
2023-03-07T09:33:48.254Z,11.04
2023-03-07T09:36:18.146Z,11.14
2023-03-07T09:38:47.054Z,11.17
2023-03-07T09:41:51.542Z,11.18
2023-03-07T09:44:27.494Z,11.22
2023-03-07T09:47:59.760Z,11.17
2023-03-07T09:50:36.081Z,11.41
2023-03-07T09:53:22.098Z,11.70
2023-03-07T09:56:21.998Z,11.66
2023-03-07T09:59:32.986Z,11.46
2023-03-07T10:02:23.698Z,11.45
2023-03-07T10:04:57.198Z,11.42
2023-03-07T10:07:27.731Z,11.42
2023-03-07T10:10:01.878Z,11.43
2023-03-07T10:12:49.826Z,11.37
2023-03-07T10:15:35.740Z,11.24
2023-03-07T10:18:25.741Z,11.17
2023-03-07T10:21:01.026Z,11.15
2023-03-07T10:23:51.758Z,11.15
2023-03-07T10:26:28.278Z,11.19
2023-03-07T10:29:00.320Z,11.34
2023-03-07T10:31:37.326Z,11.29
2023-03-07T10:34:26.254Z,11.19
2023-03-07T10:37:08.722Z,11.28
2023-03-07T10:39:43.634Z,11.47
2023-03-07T10:42:13.232Z,11.67
2023-03-07T10:44:41.966Z,11.74
2023-03-07T10:47:22.077Z,11.85
2023-03-07T10:49:52.438Z,11.81
2023-03-07T10:52:32.602Z,11.79
2023-03-07T10:55:34.892Z,11.83
2023-03-07T10:58:19.740Z,11.85
2023-03-07T11:00:59.556Z,11.74
2023-03-07T11:03:52.727Z,11.78
2023-03-07T11:06:35.042Z,11.84
2023-03-07T11:09:26.755Z,11.77
2023-03-07T11:11:58.881Z,11.82
2023-03-07T11:14:31.502Z,12.05
2023-03-07T11:17:19.460Z,12.33
2023-03-07T11:19:49.217Z,12.43
2023-03-07T11:22:24.835Z,12.69
2023-03-07T11:25:00.508Z,12.94
2023-03-07T11:27:36.325Z,13.11
2023-03-07T11:30:29.808Z,13.15
2023-03-07T11:33:08.281Z,13.15
2023-03-07T11:35:53.984Z,13.25
2023-03-07T11:38:32.851Z,13.44
2023-03-07T11:41:07.010Z,13.55
2023-03-07T11:44:05.708Z,13.70
2023-03-07T11:46:44.312Z,14.07
2023-03-07T11:49:28.850Z,14.14
2023-03-07T11:52:08.895Z,14.53
2023-03-07T11:54:47.149Z,14.66
2023-03-07T11:57:27.163Z,14.41
2023-03-07T12:00:15.626Z,14.79
2023-03-07T12:03:05.832Z,15.98
2023-03-07T12:05:51.194Z,16.63
2023-03-07T12:08:47.183Z,17.07
2023-03-07T12:11:32.885Z,17.43
2023-03-07T12:14:11.770Z,17.38
2023-03-07T12:16:52.661Z,17.33
2023-03-07T12:19:46.269Z,16.79
2023-03-07T12:22:29.019Z,16.36
2023-03-07T12:25:09.601Z,15.78
2023-03-07T12:27:42.046Z,15.36
2023-03-07T12:30:17.713Z,15.02
2023-03-07T12:32:48.139Z,15.31
2023-03-07T12:35:24.184Z,15.52
2023-03-07T12:37:57.838Z,15.38
2023-03-07T12:40:33.903Z,15.38
2023-03-07T12:43:12.393Z,15.42
2023-03-07T12:45:46.932Z,15.11
2023-03-07T12:48:22.376Z,14.91
2023-03-07T12:50:58.352Z,14.88
2023-03-07T12:53:34.890Z,15.22
2023-03-07T12:56:09.372Z,15.71
2023-03-07T12:58:43.712Z,16.28
2023-03-07T13:01:16.850Z,17.09
2023-03-07T13:03:52.649Z,17.82
2023-03-07T13:06:23.406Z,18.51
2023-03-07T13:08:53.575Z,18.77
2023-03-07T13:11:23.709Z,18.78
2023-03-07T13:13:55.391Z,18.81
2023-03-07T13:16:44.117Z,18.77
2023-03-07T13:20:04.934Z,18.72
2023-03-07T13:23:13.156Z,18.76
2023-03-07T13:25:56.338Z,19.07
2023-03-07T13:28:53.206Z,18.95
2023-03-07T13:31:39.550Z,18.66
2023-03-07T13:34:48.231Z,18.79
2023-03-07T13:37:51.182Z,19.14
2023-03-07T13:40:48.759Z,19.44
2023-03-07T13:43:49.630Z,19.77
2023-03-07T13:46:51.148Z,19.75
2023-03-07T13:49:45.021Z,19.10
2023-03-07T13:52:41.261Z,18.53
2023-03-07T13:55:26.293Z,18.38
2023-03-07T13:57:59.147Z,18.52
2023-03-07T14:00:38.077Z,18.53
2023-03-07T14:03:24.226Z,18.53
2023-03-07T14:05:54.451Z,18.43
2023-03-07T14:08:27.253Z,18.99
2023-03-07T14:10:55.401Z,19.31
2023-03-07T14:13:45.312Z,18.85
2023-03-07T14:16:30.704Z,17.59
2023-03-07T14:19:09.440Z,16.37
2023-03-07T14:21:51.451Z,15.45
2023-03-07T14:24:39.632Z,15.12
2023-03-07T14:27:13.581Z,15.02
2023-03-07T14:29:52.062Z,15.39
2023-03-07T14:32:25.387Z,15.92
2023-03-07T14:34:54.372Z,16.41
2023-03-07T14:37:26.448Z,16.93
2023-03-07T14:40:14.528Z,17.18
2023-03-07T14:42:49.761Z,17.09
2023-03-07T14:45:24.976Z,16.95
2023-03-07T14:48:17.723Z,16.77
2023-03-07T14:50:46.302Z,16.56
2023-03-07T14:53:20.302Z,16.35
2023-03-07T14:55:51.244Z,16.45
2023-03-07T14:58:22.452Z,16.69
2023-03-07T15:01:00.452Z,16.76
2023-03-07T15:03:29.362Z,17.04
2023-03-07T15:05:58.833Z,17.22
2023-03-07T15:08:29.742Z,17.14
2023-03-07T15:11:00.933Z,17.19
2023-03-07T15:13:34.394Z,17.44
2023-03-07T15:16:06.732Z,17.26
2023-03-07T15:18:38.146Z,17.30
2023-03-07T15:21:07.713Z,17.11
2023-03-07T15:23:36.232Z,16.96
2023-03-07T15:26:06.662Z,16.76
2023-03-07T15:28:36.936Z,16.37
2023-03-07T15:31:06.972Z,16.34
2023-03-07T15:33:35.322Z,16.11
2023-03-07T15:36:27.640Z,15.59
2023-03-07T15:39:26.001Z,15.03
2023-03-07T15:42:01.342Z,14.43
2023-03-07T15:44:29.848Z,14.11
2023-03-07T15:47:04.176Z,13.82
2023-03-07T15:49:41.968Z,13.55
2023-03-07T15:52:23.640Z,13.24
2023-03-07T15:54:53.636Z,13.08
2023-03-07T15:57:24.485Z,13.00
2023-03-07T15:59:57.089Z,12.99
2023-03-07T16:02:42.193Z,12.92
2023-03-07T16:05:38.932Z,12.77
2023-03-07T16:08:13.021Z,12.59
2023-03-07T16:10:46.860Z,12.58
2023-03-07T16:13:17.948Z,12.52
2023-03-07T16:15:46.008Z,12.56
2023-03-07T16:18:23.130Z,12.64
2023-03-07T16:20:51.176Z,12.62
2023-03-07T16:23:19.217Z,12.63
2023-03-07T16:25:47.402Z,12.63
2023-03-07T16:28:15.546Z,12.62
2023-03-07T16:30:45.452Z,12.47
2023-03-07T16:33:14.204Z,12.32
2023-03-07T16:35:45.376Z,12.12
2023-03-07T16:38:13.428Z,11.97
2023-03-07T16:40:43.733Z,11.74
2023-03-07T16:43:32.953Z,11.56
2023-03-07T16:46:02.246Z,11.53
2023-03-07T16:48:30.287Z,11.45
2023-03-07T16:50:59.985Z,11.39
2023-03-07T16:53:28.064Z,11.42
2023-03-07T16:55:58.504Z,11.47
2023-03-07T16:58:29.412Z,11.48
2023-03-07T17:00:59.070Z,11.49
2023-03-07T17:03:29.775Z,11.40
2023-03-07T17:05:59.219Z,11.15
2023-03-07T17:08:27.220Z,11.04
2023-03-07T17:10:55.296Z,10.94
2023-03-07T17:13:23.433Z,10.86
2023-03-07T17:15:51.485Z,10.73
2023-03-07T17:18:19.548Z,10.56
2023-03-07T17:20:47.610Z,10.49
2023-03-07T17:23:17.151Z,10.41
2023-03-07T17:25:45.167Z,10.38
2023-03-07T17:28:15.754Z,10.27
2023-03-07T17:30:45.570Z,10.11
2023-03-07T17:33:15.027Z,9.99
2023-03-07T17:35:43.400Z,9.80
2023-03-07T17:38:11.517Z,9.68
2023-03-07T17:40:41.180Z,9.63
2023-03-07T17:43:09.232Z,9.48
2023-03-07T17:45:39.704Z,9.40
2023-03-07T17:48:08.296Z,9.29
2023-03-07T17:50:36.523Z,9.17
2023-03-07T17:53:04.531Z,9.05
2023-03-07T17:55:32.894Z,8.93
2023-03-07T17:58:02.333Z,8.94
2023-03-07T18:00:30.459Z,8.93
2023-03-07T18:02:58.565Z,8.98
2023-03-07T18:05:27.998Z,8.97
2023-03-07T18:07:56.793Z,8.94
2023-03-07T18:10:25.256Z,8.94
2023-03-07T18:12:54.791Z,8.88
2023-03-07T18:15:44.997Z,8.86
2023-03-07T18:18:35.069Z,8.85
2023-03-07T18:21:29.194Z,8.73
2023-03-07T18:28:26.219Z,8.46
2023-03-07T18:31:14.947Z,8.34
2023-03-07T18:33:50.919Z,8.27
2023-03-07T18:37:19.724Z,8.16
2023-03-07T18:45:02.649Z,8.01
2023-03-07T18:51:57.151Z,8.24
2023-03-07T18:58:31.782Z,8.09
2023-03-07T19:01:44.246Z,8.03
2023-03-07T19:04:31.509Z,7.91
2023-03-07T19:10:55.034Z,7.84
2023-03-07T19:21:30.924Z,7.40
2023-03-07T19:24:30.139Z,7.31
2023-03-07T19:26:59.995Z,7.27
2023-03-07T19:29:28.725Z,7.24
2023-03-07T19:32:23.652Z,7.13
2023-03-07T19:35:26.401Z,7.04
2023-03-07T19:38:50.363Z,7.07
2023-03-07T19:53:00.663Z,6.85
2023-03-07T19:59:08.508Z,6.83
2023-03-07T20:01:37.012Z,6.83
2023-03-07T20:04:08.078Z,6.84
2023-03-07T20:06:36.781Z,6.78
2023-03-07T20:09:18.883Z,6.71
2023-03-07T20:11:48.814Z,6.63
2023-03-07T20:17:47.235Z,6.66
2023-03-07T20:20:19.385Z,6.69
2023-03-07T20:22:47.844Z,6.69
2023-03-07T20:25:16.136Z,6.69
2023-03-07T20:27:45.691Z,6.72
2023-03-07T20:30:15.164Z,6.66
2023-03-07T20:32:47.027Z,6.74
2023-03-07T20:38:41.859Z,6.79
2023-03-07T20:41:16.764Z,6.79
2023-03-07T20:44:13.612Z,6.76
2023-03-07T20:47:12.019Z,6.80
2023-03-07T20:49:40.354Z,6.83
2023-03-07T20:52:36.964Z,6.82
2023-03-07T21:03:40.600Z,6.53
2023-03-07T21:06:09.246Z,6.56
2023-03-07T21:08:39.089Z,6.54
2023-03-07T21:11:10.066Z,6.51
2023-03-07T21:13:40.495Z,6.53
2023-03-07T21:16:11.939Z,6.52
2023-03-07T21:18:42.747Z,6.53
2023-03-07T21:21:24.915Z,6.52
2023-03-07T21:23:57.861Z,6.48
2023-03-07T21:29:25.423Z,6.46
2023-03-07T21:31:54.515Z,6.48
2023-03-07T21:34:24.218Z,6.44
2023-03-07T21:36:56.152Z,6.40
2023-03-07T21:39:25.530Z,6.49
2023-03-07T21:41:53.921Z,6.55
2023-03-07T21:44:34.453Z,6.59
2023-03-07T21:47:02.779Z,6.65
2023-03-07T21:49:32.988Z,6.66
2023-03-07T21:52:01.175Z,6.66
2023-03-07T21:54:29.431Z,6.67
2023-03-07T21:56:57.620Z,6.59
2023-03-07T21:59:28.245Z,6.52
2023-03-07T22:02:02.550Z,6.43
2023-03-07T22:04:35.041Z,6.42
2023-03-07T22:07:03.151Z,6.41
2023-03-07T22:09:31.303Z,6.41
2023-03-07T22:11:59.417Z,6.35
2023-03-07T22:14:27.487Z,6.24
2023-03-07T22:16:56.647Z,6.31
2023-03-07T22:19:24.760Z,6.40
2023-03-07T22:21:54.251Z,6.42
2023-03-07T22:24:22.341Z,6.40
2023-03-07T22:26:50.380Z,6.43
2023-03-07T22:29:18.552Z,6.42
2023-03-07T22:31:46.678Z,6.39
2023-03-07T22:34:15.357Z,6.40
2023-03-07T22:36:43.576Z,6.40
2023-03-07T22:39:13.048Z,6.42
2023-03-07T22:41:41.132Z,6.48
2023-03-07T22:44:09.186Z,6.49
2023-03-07T22:46:37.244Z,6.43
2023-03-07T22:49:05.360Z,6.38
2023-03-07T22:51:35.474Z,6.38
2023-03-07T22:54:04.383Z,6.35
2023-03-07T22:56:34.652Z,6.26
2023-03-07T22:59:03.709Z,6.19
2023-03-07T23:01:31.809Z,6.21
2023-03-07T23:04:01.278Z,6.22
2023-03-07T23:06:30.698Z,6.22
2023-03-07T23:08:59.732Z,6.22
2023-03-07T23:11:29.984Z,6.16
2023-03-07T23:13:59.596Z,6.13
2023-03-07T23:16:30.129Z,6.10
2023-03-07T23:18:59.890Z,5.98
2023-03-07T23:21:30.200Z,6.02
2023-03-07T23:23:59.458Z,6.00
2023-03-07T23:26:29.252Z,5.98
2023-03-07T23:28:59.180Z,5.99
2023-03-07T23:31:29.300Z,5.94
2023-03-07T23:33:59.017Z,5.92
2023-03-07T23:36:29.429Z,5.93
2023-03-07T23:38:58.239Z,5.86
2023-03-07T23:41:27.357Z,5.86
2023-03-07T23:43:56.773Z,5.90
2023-03-07T23:46:27.210Z,5.89
2023-03-07T23:48:56.001Z,5.91
2023-03-07T23:51:24.828Z,5.93
2023-03-07T23:53:52.975Z,5.93
2023-03-07T23:56:21.480Z,5.89
2023-03-07T23:58:50.916Z,5.93
